sensor_id;sensor_type;location;lat;lon;timestamp;P1;durP1;ratioP1;P2;durP2;ratioP2
46463;SDS011;32161;48.148;-1.554;2022-10-30T00:01:10;12.35;;;2.65;;
46463;SDS011;32161;48.148;-1.554;2022-10-30T00:03:38;9.18;;;2.35;;
46463;SDS011;32161;48.148;-1.554;2022-10-30T00:06:05;6.70;;;1.77;;
46463;SDS011;32161;48.148;-1.554;2022-10-30T00:08:34;7.28;;;1.90;;
46463;SDS011;32161;48.148;-1.554;2022-10-30T00:11:05;6.90;;;1.88;;
46463;SDS011;32161;48.148;-1.554;2022-10-30T00:13:35;8.10;;;2.03;;
46463;SDS011;32161;48.148;-1.554;2022-10-30T00:16:05;10.23;;;2.55;;
46463;SDS011;32161;48.148;-1.554;2022-10-30T00:18:34;4.25;;;1.75;;
46463;SDS011;32161;48.148;-1.554;2022-10-30T00:21:06;5.88;;;2.10;;
46463;SDS011;32161;48.148;-1.554;2022-10-30T00:23:36;7.28;;;2.22;;
46463;SDS011;32161;48.148;-1.554;2022-10-30T00:26:03;7.70;;;1.67;;
46463;SDS011;32161;48.148;-1.554;2022-10-30T00:28:32;9.52;;;1.67;;
46463;SDS011;32161;48.148;-1.554;2022-10-30T00:31:00;11.18;;;1.52;;
46463;SDS011;32161;48.148;-1.554;2022-10-30T00:33:31;5.55;;;1.70;;
46463;SDS011;32161;48.148;-1.554;2022-10-30T00:35:59;8.30;;;2.10;;
46463;SDS011;32161;48.148;-1.554;2022-10-30T00:38:27;9.85;;;1.80;;
46463;SDS011;32161;48.148;-1.554;2022-10-30T00:40:54;4.97;;;1.90;;
46463;SDS011;32161;48.148;-1.554;2022-10-30T00:43:29;7.10;;;1.80;;
46463;SDS011;32161;48.148;-1.554;2022-10-30T00:46:01;14.85;;;2.10;;
46463;SDS011;32161;48.148;-1.554;2022-10-30T00:48:38;5.85;;;2.55;;
46463;SDS011;32161;48.148;-1.554;2022-10-30T00:51:07;12.45;;;2.33;;
46463;SDS011;32161;48.148;-1.554;2022-10-30T00:53:37;8.55;;;2.35;;
46463;SDS011;32161;48.148;-1.554;2022-10-30T00:56:06;15.05;;;2.47;;
46463;SDS011;32161;48.148;-1.554;2022-10-30T00:58:37;9.75;;;2.50;;
46463;SDS011;32161;48.148;-1.554;2022-10-30T01:01:08;7.70;;;2.15;;
46463;SDS011;32161;48.148;-1.554;2022-10-30T01:03:43;6.40;;;1.95;;
46463;SDS011;32161;48.148;-1.554;2022-10-30T01:06:13;6.55;;;2.10;;
46463;SDS011;32161;48.148;-1.554;2022-10-30T01:08:42;8.68;;;2.65;;
46463;SDS011;32161;48.148;-1.554;2022-10-30T01:11:11;9.30;;;2.22;;
46463;SDS011;32161;48.148;-1.554;2022-10-30T01:13:39;8.48;;;2.35;;
46463;SDS011;32161;48.148;-1.554;2022-10-30T01:19:32;6.65;;;3.20;;
46463;SDS011;32161;48.148;-1.554;2022-10-30T01:22:17;5.07;;;3.38;;
46463;SDS011;32161;48.148;-1.554;2022-10-30T01:25:06;11.82;;;4.53;;
46463;SDS011;32161;48.148;-1.554;2022-10-30T01:27:50;11.07;;;4.47;;
46463;SDS011;32161;48.148;-1.554;2022-10-30T01:30:27;9.30;;;5.90;;
46463;SDS011;32161;48.148;-1.554;2022-10-30T01:33:15;12.77;;;5.10;;
46463;SDS011;32161;48.148;-1.554;2022-10-30T01:36:00;14.95;;;5.93;;
46463;SDS011;32161;48.148;-1.554;2022-10-30T01:38:38;11.85;;;5.68;;
46463;SDS011;32161;48.148;-1.554;2022-10-30T01:41:13;10.25;;;4.72;;
46463;SDS011;32161;48.148;-1.554;2022-10-30T01:43:41;10.77;;;3.85;;
46463;SDS011;32161;48.148;-1.554;2022-10-30T01:46:18;6.50;;;4.00;;
46463;SDS011;32161;48.148;-1.554;2022-10-30T01:49:08;6.95;;;3.65;;
46463;SDS011;32161;48.148;-1.554;2022-10-30T01:52:05;9.13;;;3.00;;
46463;SDS011;32161;48.148;-1.554;2022-10-30T01:54:44;9.05;;;2.85;;
46463;SDS011;32161;48.148;-1.554;2022-10-30T01:57:22;11.93;;;2.50;;
46463;SDS011;32161;48.148;-1.554;2022-10-30T02:00:03;13.10;;;2.78;;
46463;SDS011;32161;48.148;-1.554;2022-10-30T02:02:33;8.20;;;2.35;;
46463;SDS011;32161;48.148;-1.554;2022-10-30T02:05:01;5.32;;;2.03;;
46463;SDS011;32161;48.148;-1.554;2022-10-30T02:07:31;10.43;;;3.53;;
46463;SDS011;32161;48.148;-1.554;2022-10-30T02:10:00;6.50;;;2.00;;
46463;SDS011;32161;48.148;-1.554;2022-10-30T02:12:29;6.22;;;2.00;;
46463;SDS011;32161;48.148;-1.554;2022-10-30T02:14:57;5.47;;;2.15;;
46463;SDS011;32161;48.148;-1.554;2022-10-30T02:17:27;10.25;;;2.88;;
46463;SDS011;32161;48.148;-1.554;2022-10-30T02:19:55;11.65;;;2.40;;
46463;SDS011;32161;48.148;-1.554;2022-10-30T02:22:23;9.57;;;2.28;;
46463;SDS011;32161;48.148;-1.554;2022-10-30T02:24:51;8.07;;;2.40;;
46463;SDS011;32161;48.148;-1.554;2022-10-30T02:27:19;5.13;;;2.20;;
46463;SDS011;32161;48.148;-1.554;2022-10-30T02:29:46;7.60;;;2.45;;
46463;SDS011;32161;48.148;-1.554;2022-10-30T02:32:14;7.95;;;2.28;;
46463;SDS011;32161;48.148;-1.554;2022-10-30T02:34:41;5.25;;;2.17;;
46463;SDS011;32161;48.148;-1.554;2022-10-30T02:37:09;6.40;;;2.70;;
46463;SDS011;32161;48.148;-1.554;2022-10-30T02:39:38;8.70;;;2.30;;
46463;SDS011;32161;48.148;-1.554;2022-10-30T02:42:06;4.80;;;1.88;;
46463;SDS011;32161;48.148;-1.554;2022-10-30T02:44:33;6.68;;;2.00;;
46463;SDS011;32161;48.148;-1.554;2022-10-30T02:47:01;5.93;;;2.20;;
46463;SDS011;32161;48.148;-1.554;2022-10-30T02:49:28;9.60;;;2.65;;
46463;SDS011;32161;48.148;-1.554;2022-10-30T02:51:56;7.70;;;2.70;;
46463;SDS011;32161;48.148;-1.554;2022-10-30T02:54:23;2.83;;;1.70;;
46463;SDS011;32161;48.148;-1.554;2022-10-30T02:56:52;9.05;;;2.13;;
46463;SDS011;32161;48.148;-1.554;2022-10-30T02:59:20;8.98;;;1.70;;
46463;SDS011;32161;48.148;-1.554;2022-10-30T03:01:47;5.97;;;1.88;;
46463;SDS011;32161;48.148;-1.554;2022-10-30T03:04:15;8.18;;;2.20;;
46463;SDS011;32161;48.148;-1.554;2022-10-30T03:06:42;11.20;;;2.13;;
46463;SDS011;32161;48.148;-1.554;2022-10-30T03:09:10;10.68;;;2.40;;
46463;SDS011;32161;48.148;-1.554;2022-10-30T03:11:37;11.10;;;2.40;;
46463;SDS011;32161;48.148;-1.554;2022-10-30T03:14:06;9.23;;;2.08;;
46463;SDS011;32161;48.148;-1.554;2022-10-30T03:16:35;5.47;;;1.77;;
46463;SDS011;32161;48.148;-1.554;2022-10-30T03:19:04;10.48;;;2.50;;
46463;SDS011;32161;48.148;-1.554;2022-10-30T03:21:32;6.68;;;1.88;;
46463;SDS011;32161;48.148;-1.554;2022-10-30T03:23:59;5.13;;;2.00;;
46463;SDS011;32161;48.148;-1.554;2022-10-30T03:26:27;9.27;;;2.20;;
46463;SDS011;32161;48.148;-1.554;2022-10-30T03:28:54;8.23;;;1.95;;
46463;SDS011;32161;48.148;-1.554;2022-10-30T03:31:23;7.97;;;2.33;;
46463;SDS011;32161;48.148;-1.554;2022-10-30T03:33:51;8.95;;;2.50;;
46463;SDS011;32161;48.148;-1.554;2022-10-30T03:36:18;7.43;;;2.35;;
46463;SDS011;32161;48.148;-1.554;2022-10-30T03:38:46;4.70;;;2.10;;
46463;SDS011;32161;48.148;-1.554;2022-10-30T03:41:13;5.50;;;1.80;;
46463;SDS011;32161;48.148;-1.554;2022-10-30T03:43:41;5.55;;;1.75;;
46463;SDS011;32161;48.148;-1.554;2022-10-30T03:46:08;8.13;;;1.90;;
46463;SDS011;32161;48.148;-1.554;2022-10-30T03:48:37;5.45;;;2.00;;
46463;SDS011;32161;48.148;-1.554;2022-10-30T03:51:05;5.22;;;2.30;;
46463;SDS011;32161;48.148;-1.554;2022-10-30T03:53:33;8.73;;;2.20;;
46463;SDS011;32161;48.148;-1.554;2022-10-30T03:56:01;9.10;;;1.85;;
46463;SDS011;32161;48.148;-1.554;2022-10-30T03:58:30;6.22;;;1.20;;
46463;SDS011;32161;48.148;-1.554;2022-10-30T04:01:01;6.45;;;1.15;;
46463;SDS011;32161;48.148;-1.554;2022-10-30T04:03:31;3.70;;;0.85;;
46463;SDS011;32161;48.148;-1.554;2022-10-30T04:06:00;4.20;;;1.00;;
46463;SDS011;32161;48.148;-1.554;2022-10-30T04:08:28;7.30;;;1.50;;
46463;SDS011;32161;48.148;-1.554;2022-10-30T04:10:56;7.22;;;1.77;;
46463;SDS011;32161;48.148;-1.554;2022-10-30T04:13:24;4.70;;;1.00;;
46463;SDS011;32161;48.148;-1.554;2022-10-30T04:15:51;6.13;;;1.35;;
46463;SDS011;32161;48.148;-1.554;2022-10-30T04:18:19;7.30;;;0.93;;
46463;SDS011;32161;48.148;-1.554;2022-10-30T04:20:47;3.22;;;0.80;;
46463;SDS011;32161;48.148;-1.554;2022-10-30T04:23:16;8.35;;;1.15;;
46463;SDS011;32161;48.148;-1.554;2022-10-30T04:25:46;3.67;;;0.85;;
46463;SDS011;32161;48.148;-1.554;2022-10-30T04:28:14;2.78;;;0.70;;
46463;SDS011;32161;48.148;-1.554;2022-10-30T04:30:41;7.50;;;1.30;;
46463;SDS011;32161;48.148;-1.554;2022-10-30T04:33:11;4.20;;;0.85;;
46463;SDS011;32161;48.148;-1.554;2022-10-30T04:35:39;3.95;;;0.68;;
46463;SDS011;32161;48.148;-1.554;2022-10-30T04:38:08;2.10;;;0.80;;
46463;SDS011;32161;48.148;-1.554;2022-10-30T04:40:39;2.67;;;0.68;;
46463;SDS011;32161;48.148;-1.554;2022-10-30T04:43:08;4.10;;;0.63;;
46463;SDS011;32161;48.148;-1.554;2022-10-30T04:45:38;4.30;;;0.88;;
46463;SDS011;32161;48.148;-1.554;2022-10-30T04:48:09;3.55;;;0.75;;
46463;SDS011;32161;48.148;-1.554;2022-10-30T04:50:38;5.25;;;0.77;;
46463;SDS011;32161;48.148;-1.554;2022-10-30T04:53:06;3.70;;;0.60;;
46463;SDS011;32161;48.148;-1.554;2022-10-30T04:55:38;4.93;;;1.00;;
46463;SDS011;32161;48.148;-1.554;2022-10-30T04:58:07;6.55;;;1.52;;
46463;SDS011;32161;48.148;-1.554;2022-10-30T05:00:35;5.03;;;0.80;;
46463;SDS011;32161;48.148;-1.554;2022-10-30T05:03:03;4.47;;;1.05;;
46463;SDS011;32161;48.148;-1.554;2022-10-30T05:05:30;4.50;;;1.25;;
46463;SDS011;32161;48.148;-1.554;2022-10-30T05:07:58;4.05;;;0.88;;
46463;SDS011;32161;48.148;-1.554;2022-10-30T05:10:26;3.75;;;1.38;;
46463;SDS011;32161;48.148;-1.554;2022-10-30T05:12:55;4.85;;;0.95;;
46463;SDS011;32161;48.148;-1.554;2022-10-30T05:15:24;5.33;;;0.67;;
46463;SDS011;32161;48.148;-1.554;2022-10-30T05:17:52;4.45;;;0.80;;
46463;SDS011;32161;48.148;-1.554;2022-10-30T05:20:19;5.10;;;0.70;;
46463;SDS011;32161;48.148;-1.554;2022-10-30T05:22:52;2.50;;;0.75;;
46463;SDS011;32161;48.148;-1.554;2022-10-30T05:25:20;1.70;;;0.43;;
46463;SDS011;32161;48.148;-1.554;2022-10-30T05:27:48;1.98;;;0.38;;
46463;SDS011;32161;48.148;-1.554;2022-10-30T05:30:17;4.00;;;0.57;;
46463;SDS011;32161;48.148;-1.554;2022-10-30T05:32:44;5.13;;;0.70;;
46463;SDS011;32161;48.148;-1.554;2022-10-30T05:35:12;4.25;;;0.90;;
46463;SDS011;32161;48.148;-1.554;2022-10-30T05:37:40;2.92;;;0.65;;
46463;SDS011;32161;48.148;-1.554;2022-10-30T05:40:08;4.20;;;0.70;;
46463;SDS011;32161;48.148;-1.554;2022-10-30T05:42:36;2.55;;;0.50;;
46463;SDS011;32161;48.148;-1.554;2022-10-30T05:45:09;1.77;;;0.60;;
46463;SDS011;32161;48.148;-1.554;2022-10-30T05:47:39;2.05;;;0.65;;
46463;SDS011;32161;48.148;-1.554;2022-10-30T05:50:07;3.30;;;0.75;;
46463;SDS011;32161;48.148;-1.554;2022-10-30T05:52:36;4.30;;;0.82;;
46463;SDS011;32161;48.148;-1.554;2022-10-30T05:55:04;12.40;;;0.80;;
46463;SDS011;32161;48.148;-1.554;2022-10-30T05:57:32;2.85;;;0.50;;
46463;SDS011;32161;48.148;-1.554;2022-10-30T06:00:00;3.35;;;0.70;;
46463;SDS011;32161;48.148;-1.554;2022-10-30T06:02:27;3.17;;;1.08;;
46463;SDS011;32161;48.148;-1.554;2022-10-30T06:04:56;1.35;;;0.70;;
46463;SDS011;32161;48.148;-1.554;2022-10-30T06:07:24;3.47;;;0.60;;
46463;SDS011;32161;48.148;-1.554;2022-10-30T06:09:51;1.50;;;0.32;;
46463;SDS011;32161;48.148;-1.554;2022-10-30T06:12:19;2.20;;;0.70;;
46463;SDS011;32161;48.148;-1.554;2022-10-30T06:14:46;5.65;;;0.77;;
46463;SDS011;32161;48.148;-1.554;2022-10-30T06:17:14;2.05;;;0.50;;
46463;SDS011;32161;48.148;-1.554;2022-10-30T06:19:41;1.95;;;0.47;;
46463;SDS011;32161;48.148;-1.554;2022-10-30T06:22:10;1.80;;;0.70;;
46463;SDS011;32161;48.148;-1.554;2022-10-30T06:24:38;1.70;;;0.52;;
46463;SDS011;32161;48.148;-1.554;2022-10-30T06:27:05;1.27;;;0.50;;
46463;SDS011;32161;48.148;-1.554;2022-10-30T06:29:33;2.83;;;0.52;;
46463;SDS011;32161;48.148;-1.554;2022-10-30T06:32:01;3.08;;;0.57;;
46463;SDS011;32161;48.148;-1.554;2022-10-30T06:34:28;5.50;;;0.70;;
46463;SDS011;32161;48.148;-1.554;2022-10-30T06:36:56;2.58;;;0.65;;
46463;SDS011;32161;48.148;-1.554;2022-10-30T06:39:25;3.42;;;0.57;;
46463;SDS011;32161;48.148;-1.554;2022-10-30T06:41:52;2.83;;;0.80;;
46463;SDS011;32161;48.148;-1.554;2022-10-30T06:44:20;2.30;;;0.77;;
46463;SDS011;32161;48.148;-1.554;2022-10-30T06:46:47;4.30;;;0.65;;
46463;SDS011;32161;48.148;-1.554;2022-10-30T06:49:18;1.52;;;0.68;;
46463;SDS011;32161;48.148;-1.554;2022-10-30T06:51:46;2.40;;;0.60;;
46463;SDS011;32161;48.148;-1.554;2022-10-30T06:54:14;1.75;;;0.70;;
46463;SDS011;32161;48.148;-1.554;2022-10-30T06:56:43;1.65;;;0.55;;
46463;SDS011;32161;48.148;-1.554;2022-10-30T06:59:16;4.75;;;0.63;;
46463;SDS011;32161;48.148;-1.554;2022-10-30T07:01:43;2.33;;;0.75;;
46463;SDS011;32161;48.148;-1.554;2022-10-30T07:04:11;3.95;;;1.00;;
46463;SDS011;32161;48.148;-1.554;2022-10-30T07:06:38;3.20;;;0.60;;
46463;SDS011;32161;48.148;-1.554;2022-10-30T07:09:06;3.00;;;0.60;;
46463;SDS011;32161;48.148;-1.554;2022-10-30T07:11:34;2.47;;;0.40;;
46463;SDS011;32161;48.148;-1.554;2022-10-30T07:14:03;1.35;;;0.80;;
46463;SDS011;32161;48.148;-1.554;2022-10-30T07:16:31;1.95;;;0.45;;
46463;SDS011;32161;48.148;-1.554;2022-10-30T07:18:58;1.17;;;0.50;;
46463;SDS011;32161;48.148;-1.554;2022-10-30T07:21:26;4.32;;;0.95;;
46463;SDS011;32161;48.148;-1.554;2022-10-30T07:23:53;6.25;;;1.05;;
46463;SDS011;32161;48.148;-1.554;2022-10-30T07:26:21;2.20;;;0.63;;
46463;SDS011;32161;48.148;-1.554;2022-10-30T07:28:49;2.92;;;0.22;;
46463;SDS011;32161;48.148;-1.554;2022-10-30T07:31:18;1.60;;;0.43;;
46463;SDS011;32161;48.148;-1.554;2022-10-30T07:33:45;3.60;;;0.55;;
46463;SDS011;32161;48.148;-1.554;2022-10-30T07:36:13;5.70;;;0.80;;
46463;SDS011;32161;48.148;-1.554;2022-10-30T07:38:40;4.35;;;0.70;;
46463;SDS011;32161;48.148;-1.554;2022-10-30T07:41:08;1.63;;;0.50;;
46463;SDS011;32161;48.148;-1.554;2022-10-30T07:43:35;2.40;;;0.50;;
46463;SDS011;32161;48.148;-1.554;2022-10-30T07:46:03;3.95;;;0.60;;
46463;SDS011;32161;48.148;-1.554;2022-10-30T07:48:32;3.83;;;0.70;;
46463;SDS011;32161;48.148;-1.554;2022-10-30T07:51:00;3.85;;;1.52;;
46463;SDS011;32161;48.148;-1.554;2022-10-30T07:53:27;2.58;;;0.80;;
46463;SDS011;32161;48.148;-1.554;2022-10-30T07:55:55;2.63;;;0.70;;
46463;SDS011;32161;48.148;-1.554;2022-10-30T07:58:22;1.10;;;0.40;;
46463;SDS011;32161;48.148;-1.554;2022-10-30T08:00:50;3.35;;;0.75;;
46463;SDS011;32161;48.148;-1.554;2022-10-30T08:03:18;0.73;;;0.52;;
46463;SDS011;32161;48.148;-1.554;2022-10-30T08:05:47;2.25;;;0.55;;
46463;SDS011;32161;48.148;-1.554;2022-10-30T08:08:14;1.05;;;0.40;;
46463;SDS011;32161;48.148;-1.554;2022-10-30T08:10:42;2.00;;;0.63;;
46463;SDS011;32161;48.148;-1.554;2022-10-30T08:13:09;2.45;;;0.70;;
46463;SDS011;32161;48.148;-1.554;2022-10-30T08:15:38;1.05;;;0.50;;
46463;SDS011;32161;48.148;-1.554;2022-10-30T08:18:07;2.13;;;0.60;;
46463;SDS011;32161;48.148;-1.554;2022-10-30T08:20:35;1.95;;;0.60;;
46463;SDS011;32161;48.148;-1.554;2022-10-30T08:23:04;5.38;;;0.70;;
46463;SDS011;32161;48.148;-1.554;2022-10-30T08:25:31;1.92;;;0.77;;
46463;SDS011;32161;48.148;-1.554;2022-10-30T08:27:59;3.20;;;1.05;;
46463;SDS011;32161;48.148;-1.554;2022-10-30T08:30:29;2.20;;;0.50;;
46463;SDS011;32161;48.148;-1.554;2022-10-30T08:33:00;4.82;;;0.73;;
46463;SDS011;32161;48.148;-1.554;2022-10-30T08:35:29;2.83;;;1.30;;
46463;SDS011;32161;48.148;-1.554;2022-10-30T08:37:58;3.80;;;0.82;;
46463;SDS011;32161;48.148;-1.554;2022-10-30T08:40:28;1.95;;;0.70;;
46463;SDS011;32161;48.148;-1.554;2022-10-30T08:42:56;4.32;;;0.77;;
46463;SDS011;32161;48.148;-1.554;2022-10-30T08:45:24;10.10;;;0.73;;
46463;SDS011;32161;48.148;-1.554;2022-10-30T08:47:55;3.35;;;0.77;;
46463;SDS011;32161;48.148;-1.554;2022-10-30T08:50:23;4.53;;;0.73;;
46463;SDS011;32161;48.148;-1.554;2022-10-30T08:52:51;2.88;;;0.50;;
46463;SDS011;32161;48.148;-1.554;2022-10-30T08:55:20;4.55;;;0.73;;
46463;SDS011;32161;48.148;-1.554;2022-10-30T08:57:49;3.85;;;0.75;;
46463;SDS011;32161;48.148;-1.554;2022-10-30T09:00:16;4.07;;;0.73;;
46463;SDS011;32161;48.148;-1.554;2022-10-30T09:02:44;2.72;;;0.90;;
46463;SDS011;32161;48.148;-1.554;2022-10-30T09:05:12;3.13;;;0.95;;
46463;SDS011;32161;48.148;-1.554;2022-10-30T09:07:39;0.73;;;0.38;;
46463;SDS011;32161;48.148;-1.554;2022-10-30T09:10:07;3.50;;;0.50;;
46463;SDS011;32161;48.148;-1.554;2022-10-30T09:12:35;2.25;;;0.70;;
46463;SDS011;32161;48.148;-1.554;2022-10-30T09:15:05;6.72;;;0.65;;
46463;SDS011;32161;48.148;-1.554;2022-10-30T09:17:34;2.97;;;1.05;;
46463;SDS011;32161;48.148;-1.554;2022-10-30T09:20:01;4.97;;;1.15;;
46463;SDS011;32161;48.148;-1.554;2022-10-30T09:22:30;1.13;;;0.60;;
46463;SDS011;32161;48.148;-1.554;2022-10-30T09:24:57;4.15;;;0.90;;
46463;SDS011;32161;48.148;-1.554;2022-10-30T09:27:25;1.85;;;0.40;;
46463;SDS011;32161;48.148;-1.554;2022-10-30T09:29:52;2.22;;;0.68;;
46463;SDS011;32161;48.148;-1.554;2022-10-30T09:32:21;2.05;;;0.73;;
46463;SDS011;32161;48.148;-1.554;2022-10-30T09:34:49;2.92;;;0.70;;
46463;SDS011;32161;48.148;-1.554;2022-10-30T09:37:16;1.75;;;0.65;;
46463;SDS011;32161;48.148;-1.554;2022-10-30T09:39:44;1.77;;;0.50;;
46463;SDS011;32161;48.148;-1.554;2022-10-30T09:42:16;2.38;;;0.85;;
46463;SDS011;32161;48.148;-1.554;2022-10-30T09:45:09;4.90;;;0.93;;
46463;SDS011;32161;48.148;-1.554;2022-10-30T09:48:26;3.47;;;0.80;;
46463;SDS011;32161;48.148;-1.554;2022-10-30T09:51:24;0.93;;;0.60;;
46463;SDS011;32161;48.148;-1.554;2022-10-30T09:54:20;8.48;;;0.70;;
46463;SDS011;32161;48.148;-1.554;2022-10-30T09:57:01;2.00;;;0.80;;
46463;SDS011;32161;48.148;-1.554;2022-10-30T09:59:35;2.00;;;0.60;;
46463;SDS011;32161;48.148;-1.554;2022-10-30T10:02:20;1.67;;;0.93;;
46463;SDS011;32161;48.148;-1.554;2022-10-30T10:05:02;2.45;;;0.82;;
46463;SDS011;32161;48.148;-1.554;2022-10-30T10:07:40;2.70;;;0.70;;
46463;SDS011;32161;48.148;-1.554;2022-10-30T10:10:15;1.67;;;0.50;;
46463;SDS011;32161;48.148;-1.554;2022-10-30T10:12:49;1.73;;;0.50;;
46463;SDS011;32161;48.148;-1.554;2022-10-30T10:15:19;1.15;;;1.05;;
46463;SDS011;32161;48.148;-1.554;2022-10-30T10:17:59;1.20;;;0.60;;
46463;SDS011;32161;48.148;-1.554;2022-10-30T10:20:34;1.25;;;0.40;;
46463;SDS011;32161;48.148;-1.554;2022-10-30T10:23:11;4.45;;;0.90;;
46463;SDS011;32161;48.148;-1.554;2022-10-30T10:25:46;2.78;;;0.60;;
46463;SDS011;32161;48.148;-1.554;2022-10-30T10:28:26;1.83;;;0.43;;
46463;SDS011;32161;48.148;-1.554;2022-10-30T10:31:15;2.75;;;0.65;;
46463;SDS011;32161;48.148;-1.554;2022-10-30T10:37:03;2.75;;;0.95;;
46463;SDS011;32161;48.148;-1.554;2022-10-30T10:42:25;5.18;;;0.60;;
46463;SDS011;32161;48.148;-1.554;2022-10-30T10:48:08;1.27;;;0.50;;
46463;SDS011;32161;48.148;-1.554;2022-10-30T10:51:13;1.00;;;0.55;;
46463;SDS011;32161;48.148;-1.554;2022-10-30T10:53:47;4.25;;;0.65;;
46463;SDS011;32161;48.148;-1.554;2022-10-30T10:56:20;2.80;;;0.50;;
46463;SDS011;32161;48.148;-1.554;2022-10-30T10:58:57;2.60;;;0.57;;
46463;SDS011;32161;48.148;-1.554;2022-10-30T11:01:34;1.50;;;0.30;;
46463;SDS011;32161;48.148;-1.554;2022-10-30T11:04:08;1.35;;;0.40;;
46463;SDS011;32161;48.148;-1.554;2022-10-30T11:06:41;0.95;;;0.50;;
46463;SDS011;32161;48.148;-1.554;2022-10-30T11:09:16;1.48;;;0.40;;
46463;SDS011;32161;48.148;-1.554;2022-10-30T11:11:46;1.25;;;0.40;;
46463;SDS011;32161;48.148;-1.554;2022-10-30T11:14:15;1.52;;;0.57;;
46463;SDS011;32161;48.148;-1.554;2022-10-30T11:19:38;0.57;;;0.30;;
46463;SDS011;32161;48.148;-1.554;2022-10-30T11:22:08;2.25;;;0.50;;
46463;SDS011;32161;48.148;-1.554;2022-10-30T11:24:52;2.55;;;0.30;;
46463;SDS011;32161;48.148;-1.554;2022-10-30T11:27:23;1.85;;;0.45;;
46463;SDS011;32161;48.148;-1.554;2022-10-30T11:29:56;1.30;;;0.38;;
46463;SDS011;32161;48.148;-1.554;2022-10-30T11:32:27;2.10;;;0.40;;
46463;SDS011;32161;48.148;-1.554;2022-10-30T11:34:59;5.15;;;0.73;;
46463;SDS011;32161;48.148;-1.554;2022-10-30T11:37:37;0.43;;;0.30;;
46463;SDS011;32161;48.148;-1.554;2022-10-30T11:42:45;3.10;;;1.02;;
46463;SDS011;32161;48.148;-1.554;2022-10-30T11:45:17;2.53;;;0.75;;
46463;SDS011;32161;48.148;-1.554;2022-10-30T11:47:53;2.15;;;0.40;;
46463;SDS011;32161;48.148;-1.554;2022-10-30T11:50:25;1.80;;;0.60;;
46463;SDS011;32161;48.148;-1.554;2022-10-30T11:52:57;2.53;;;0.63;;
46463;SDS011;32161;48.148;-1.554;2022-10-30T11:55:31;0.85;;;0.40;;
46463;SDS011;32161;48.148;-1.554;2022-10-30T11:58:03;3.40;;;0.50;;
46463;SDS011;32161;48.148;-1.554;2022-10-30T12:00:34;4.15;;;0.77;;
46463;SDS011;32161;48.148;-1.554;2022-10-30T12:03:09;1.00;;;0.50;;
46463;SDS011;32161;48.148;-1.554;2022-10-30T12:06:05;2.15;;;0.70;;
46463;SDS011;32161;48.148;-1.554;2022-10-30T12:08:35;1.13;;;0.70;;
46463;SDS011;32161;48.148;-1.554;2022-10-30T12:11:04;3.97;;;1.30;;
46463;SDS011;32161;48.148;-1.554;2022-10-30T12:13:35;4.50;;;0.95;;
46463;SDS011;32161;48.148;-1.554;2022-10-30T12:16:06;3.92;;;0.80;;
46463;SDS011;32161;48.148;-1.554;2022-10-30T12:18:41;2.90;;;1.00;;
46463;SDS011;32161;48.148;-1.554;2022-10-30T12:21:20;3.25;;;0.63;;
46463;SDS011;32161;48.148;-1.554;2022-10-30T12:23:49;4.75;;;0.90;;
46463;SDS011;32161;48.148;-1.554;2022-10-30T12:26:21;2.92;;;0.57;;
46463;SDS011;32161;48.148;-1.554;2022-10-30T12:28:52;2.72;;;0.73;;
46463;SDS011;32161;48.148;-1.554;2022-10-30T12:31:28;1.75;;;0.75;;
46463;SDS011;32161;48.148;-1.554;2022-10-30T12:34:05;2.45;;;0.60;;
46463;SDS011;32161;48.148;-1.554;2022-10-30T12:36:46;2.33;;;0.60;;
46463;SDS011;32161;48.148;-1.554;2022-10-30T12:39:20;2.47;;;0.73;;
46463;SDS011;32161;48.148;-1.554;2022-10-30T12:41:57;8.20;;;0.77;;
46463;SDS011;32161;48.148;-1.554;2022-10-30T12:44:32;2.97;;;1.20;;
46463;SDS011;32161;48.148;-1.554;2022-10-30T12:47:07;7.07;;;0.90;;
46463;SDS011;32161;48.148;-1.554;2022-10-30T12:49:43;3.65;;;0.90;;
46463;SDS011;32161;48.148;-1.554;2022-10-30T12:52:17;5.38;;;0.90;;
46463;SDS011;32161;48.148;-1.554;2022-10-30T12:54:53;3.35;;;0.77;;
46463;SDS011;32161;48.148;-1.554;2022-10-30T12:57:27;3.88;;;1.60;;
46463;SDS011;32161;48.148;-1.554;2022-10-30T13:00:03;4.30;;;1.27;;
46463;SDS011;32161;48.148;-1.554;2022-10-30T13:02:39;5.95;;;0.98;;
46463;SDS011;32161;48.148;-1.554;2022-10-30T13:05:18;9.05;;;1.02;;
46463;SDS011;32161;48.148;-1.554;2022-10-30T13:08:01;3.10;;;1.00;;
46463;SDS011;32161;48.148;-1.554;2022-10-30T13:10:40;4.00;;;1.10;;
46463;SDS011;32161;48.148;-1.554;2022-10-30T13:13:14;3.13;;;0.90;;
46463;SDS011;32161;48.148;-1.554;2022-10-30T13:15:46;3.17;;;1.00;;
46463;SDS011;32161;48.148;-1.554;2022-10-30T13:18:17;2.83;;;0.70;;
46463;SDS011;32161;48.148;-1.554;2022-10-30T13:20:57;5.30;;;1.15;;
46463;SDS011;32161;48.148;-1.554;2022-10-30T13:23:41;3.92;;;0.82;;
46463;SDS011;32161;48.148;-1.554;2022-10-30T13:26:20;6.82;;;0.60;;
46463;SDS011;32161;48.148;-1.554;2022-10-30T13:29:00;7.22;;;0.80;;
46463;SDS011;32161;48.148;-1.554;2022-10-30T13:31:42;5.80;;;0.90;;
46463;SDS011;32161;48.148;-1.554;2022-10-30T13:34:24;2.38;;;0.63;;
46463;SDS011;32161;48.148;-1.554;2022-10-30T13:37:02;4.43;;;0.90;;
46463;SDS011;32161;48.148;-1.554;2022-10-30T13:39:38;5.85;;;1.20;;
46463;SDS011;32161;48.148;-1.554;2022-10-30T13:42:21;1.58;;;0.80;;
46463;SDS011;32161;48.148;-1.554;2022-10-30T13:45:16;3.03;;;0.73;;
46463;SDS011;32161;48.148;-1.554;2022-10-30T13:47:59;4.18;;;1.05;;
46463;SDS011;32161;48.148;-1.554;2022-10-30T13:50:43;5.82;;;1.00;;
46463;SDS011;32161;48.148;-1.554;2022-10-30T13:53:33;4.32;;;1.15;;
46463;SDS011;32161;48.148;-1.554;2022-10-30T13:56:04;4.40;;;0.70;;
46463;SDS011;32161;48.148;-1.554;2022-10-30T13:58:38;4.60;;;0.80;;
46463;SDS011;32161;48.148;-1.554;2022-10-30T14:01:14;4.95;;;1.00;;
46463;SDS011;32161;48.148;-1.554;2022-10-30T14:03:50;2.65;;;0.93;;
46463;SDS011;32161;48.148;-1.554;2022-10-30T14:06:25;4.85;;;1.30;;
46463;SDS011;32161;48.148;-1.554;2022-10-30T14:09:07;3.92;;;0.80;;
46463;SDS011;32161;48.148;-1.554;2022-10-30T14:11:40;6.55;;;0.80;;
46463;SDS011;32161;48.148;-1.554;2022-10-30T14:14:23;5.25;;;1.00;;
46463;SDS011;32161;48.148;-1.554;2022-10-30T14:23:05;2.83;;;0.88;;
46463;SDS011;32161;48.148;-1.554;2022-10-30T14:25:34;2.72;;;0.68;;
46463;SDS011;32161;48.148;-1.554;2022-10-30T14:28:02;1.95;;;0.80;;
46463;SDS011;32161;48.148;-1.554;2022-10-30T14:30:30;2.47;;;0.80;;
46463;SDS011;32161;48.148;-1.554;2022-10-30T14:33:02;4.38;;;0.90;;
46463;SDS011;32161;48.148;-1.554;2022-10-30T14:35:33;4.95;;;0.75;;
46463;SDS011;32161;48.148;-1.554;2022-10-30T14:38:22;3.63;;;1.00;;
46463;SDS011;32161;48.148;-1.554;2022-10-30T14:44:16;2.00;;;0.60;;
46463;SDS011;32161;48.148;-1.554;2022-10-30T14:47:11;0.93;;;0.70;;
46463;SDS011;32161;48.148;-1.554;2022-10-30T14:50:15;6.20;;;0.80;;
46463;SDS011;32161;48.148;-1.554;2022-10-30T14:56:05;4.18;;;0.70;;
46463;SDS011;32161;48.148;-1.554;2022-10-30T14:58:54;6.75;;;0.80;;
46463;SDS011;32161;48.148;-1.554;2022-10-30T15:01:47;3.70;;;0.70;;
46463;SDS011;32161;48.148;-1.554;2022-10-30T15:05:11;3.22;;;1.02;;
46463;SDS011;32161;48.148;-1.554;2022-10-30T15:08:14;6.47;;;1.50;;
46463;SDS011;32161;48.148;-1.554;2022-10-30T15:11:29;3.80;;;0.90;;
46463;SDS011;32161;48.148;-1.554;2022-10-30T15:14:15;7.30;;;1.20;;
46463;SDS011;32161;48.148;-1.554;2022-10-30T15:16:50;2.75;;;1.00;;
46463;SDS011;32161;48.148;-1.554;2022-10-30T15:19:18;4.60;;;0.90;;
46463;SDS011;32161;48.148;-1.554;2022-10-30T15:21:50;8.57;;;0.90;;
46463;SDS011;32161;48.148;-1.554;2022-10-30T15:24:21;6.47;;;0.77;;
46463;SDS011;32161;48.148;-1.554;2022-10-30T15:26:51;4.75;;;1.17;;
46463;SDS011;32161;48.148;-1.554;2022-10-30T15:29:23;4.25;;;0.93;;
46463;SDS011;32161;48.148;-1.554;2022-10-30T15:34:26;6.70;;;1.02;;
46463;SDS011;32161;48.148;-1.554;2022-10-30T15:36:56;5.57;;;1.08;;